sensor_id;sensor_type;location;lat;lon;timestamp;temperature;humidity
12604;DHT22;6367;52.508;13.284;2023-09-19T00:00:06;21.70;99.90
12604;DHT22;6367;52.508;13.284;2023-09-19T00:02:32;21.70;99.90
12604;DHT22;6367;52.508;13.284;2023-09-19T00:04:58;21.70;99.90
12604;DHT22;6367;52.508;13.284;2023-09-19T00:07:24;21.60;99.90
12604;DHT22;6367;52.508;13.284;2023-09-19T00:09:49;21.60;99.90
12604;DHT22;6367;52.508;13.284;2023-09-19T00:12:15;21.70;99.90
12604;DHT22;6367;52.508;13.284;2023-09-19T00:14:41;21.70;99.90
12604;DHT22;6367;52.508;13.284;2023-09-19T00:17:06;21.60;99.90
12604;DHT22;6367;52.508;13.284;2023-09-19T00:19:32;21.60;99.90
12604;DHT22;6367;52.508;13.284;2023-09-19T00:21:58;21.60;99.90
12604;DHT22;6367;52.508;13.284;2023-09-19T00:24:24;21.60;99.90
12604;DHT22;6367;52.508;13.284;2023-09-19T00:26:49;21.50;99.90
12604;DHT22;6367;52.508;13.284;2023-09-19T00:29:15;21.60;99.90
12604;DHT22;6367;52.508;13.284;2023-09-19T00:31:44;21.50;99.90
12604;DHT22;6367;52.508;13.284;2023-09-19T00:34:10;21.50;99.90
12604;DHT22;6367;52.508;13.284;2023-09-19T00:36:39;21.50;99.90
12604;DHT22;6367;52.508;13.284;2023-09-19T00:39:06;21.10;99.90
12604;DHT22;6367;52.508;13.284;2023-09-19T00:41:32;21.50;99.90
12604;DHT22;6367;52.508;13.284;2023-09-19T00:43:58;21.50;99.90
12604;DHT22;6367;52.508;13.284;2023-09-19T00:46:25;21.50;99.90
12604;DHT22;6367;52.508;13.284;2023-09-19T00:48:51;21.50;99.90
12604;DHT22;6367;52.508;13.284;2023-09-19T00:51:17;21.50;99.90
12604;DHT22;6367;52.508;13.284;2023-09-19T00:53:47;21.40;99.90
12604;DHT22;6367;52.508;13.284;2023-09-19T00:56:15;21.40;99.90
12604;DHT22;6367;52.508;13.284;2023-09-19T00:58:44;21.40;99.90
12604;DHT22;6367;52.508;13.284;2023-09-19T01:01:10;21.40;99.90
12604;DHT22;6367;52.508;13.284;2023-09-19T01:03:37;21.40;99.90
12604;DHT22;6367;52.508;13.284;2023-09-19T01:06:03;21.40;99.90
12604;DHT22;6367;52.508;13.284;2023-09-19T01:08:29;21.40;99.90
12604;DHT22;6367;52.508;13.284;2023-09-19T01:11:13;21.40;99.90
12604;DHT22;6367;52.508;13.284;2023-09-19T01:13:47;21.30;99.90
12604;DHT22;6367;52.508;13.284;2023-09-19T01:16:29;21.30;99.90
12604;DHT22;6367;52.508;13.284;2023-09-19T01:28:04;21.30;99.90
12604;DHT22;6367;52.508;13.284;2023-09-19T01:30:35;21.20;99.90
12604;DHT22;6367;52.508;13.284;2023-09-19T01:33:03;21.20;99.90
12604;DHT22;6367;52.508;13.284;2023-09-19T01:35:31;21.20;99.90
12604;DHT22;6367;52.508;13.284;2023-09-19T01:37:58;21.30;99.90
12604;DHT22;6367;52.508;13.284;2023-09-19T01:40:24;21.20;99.90
12604;DHT22;6367;52.508;13.284;2023-09-19T01:42:57;21.30;99.90
12604;DHT22;6367;52.508;13.284;2023-09-19T01:48:33;21.30;99.90
12604;DHT22;6367;52.508;13.284;2023-09-19T01:51:03;21.20;99.90
12604;DHT22;6367;52.508;13.284;2023-09-19T01:54:01;21.30;99.90
12604;DHT22;6367;52.508;13.284;2023-09-19T01:56:34;20.60;99.90
12604;DHT22;6367;52.508;13.284;2023-09-19T01:59:07;21.20;99.90
12604;DHT22;6367;52.508;13.284;2023-09-19T02:01:34;21.30;99.90
12604;DHT22;6367;52.508;13.284;2023-09-19T02:04:02;21.30;99.90
12604;DHT22;6367;52.508;13.284;2023-09-19T02:06:28;21.30;99.90
12604;DHT22;6367;52.508;13.284;2023-09-19T02:08:54;21.40;99.90
12604;DHT22;6367;52.508;13.284;2023-09-19T02:11:21;21.40;99.90
12604;DHT22;6367;52.508;13.284;2023-09-19T02:13:46;21.50;99.90
12604;DHT22;6367;52.508;13.284;2023-09-19T02:16:12;21.40;99.90
12604;DHT22;6367;52.508;13.284;2023-09-19T02:18:38;21.40;99.90
12604;DHT22;6367;52.508;13.284;2023-09-19T02:21:05;21.50;99.90
12604;DHT22;6367;52.508;13.284;2023-09-19T02:23:33;21.40;99.90
12604;DHT22;6367;52.508;13.284;2023-09-19T02:25:59;21.40;99.90
12604;DHT22;6367;52.508;13.284;2023-09-19T02:28:29;21.90;99.90
12604;DHT22;6367;52.508;13.284;2023-09-19T02:31:01;21.40;99.90
12604;DHT22;6367;52.508;13.284;2023-09-19T02:33:27;21.30;99.90
12604;DHT22;6367;52.508;13.284;2023-09-19T02:35:56;21.40;99.90
12604;DHT22;6367;52.508;13.284;2023-09-19T02:38:26;21.40;99.90
12604;DHT22;6367;52.508;13.284;2023-09-19T02:40:52;21.40;99.90
12604;DHT22;6367;52.508;13.284;2023-09-19T02:43:18;21.40;99.90
12604;DHT22;6367;52.508;13.284;2023-09-19T02:45:47;21.40;99.90
12604;DHT22;6367;52.508;13.284;2023-09-19T02:48:21;21.40;99.90
12604;DHT22;6367;52.508;13.284;2023-09-19T02:50:50;21.40;99.90
12604;DHT22;6367;52.508;13.284;2023-09-19T02:53:16;21.40;99.90
12604;DHT22;6367;52.508;13.284;2023-09-19T02:55:42;21.40;99.90
12604;DHT22;6367;52.508;13.284;2023-09-19T02:58:08;21.40;99.90
12604;DHT22;6367;52.508;13.284;2023-09-19T03:00:37;21.50;99.90
12604;DHT22;6367;52.508;13.284;2023-09-19T03:03:03;21.50;99.90
12604;DHT22;6367;52.508;13.284;2023-09-19T03:05:29;21.40;99.90
12604;DHT22;6367;52.508;13.284;2023-09-19T03:07:58;21.40;99.90
12604;DHT22;6367;52.508;13.284;2023-09-19T03:10:26;21.50;99.90
12604;DHT22;6367;52.508;13.284;2023-09-19T03:12:53;21.50;99.90
12604;DHT22;6367;52.508;13.284;2023-09-19T03:15:19;21.50;99.90
12604;DHT22;6367;52.508;13.284;2023-09-19T03:17:45;21.40;99.90
12604;DHT22;6367;52.508;13.284;2023-09-19T03:20:11;21.50;99.90
12604;DHT22;6367;52.508;13.284;2023-09-19T03:22:39;21.50;99.90
12604;DHT22;6367;52.508;13.284;2023-09-19T03:25:06;21.50;99.90
12604;DHT22;6367;52.508;13.284;2023-09-19T03:27:36;21.50;99.90
12604;DHT22;6367;52.508;13.284;2023-09-19T03:30:02;21.50;99.90
12604;DHT22;6367;52.508;13.284;2023-09-19T03:32:33;21.50;99.90
12604;DHT22;6367;52.508;13.284;2023-09-19T03:35:00;21.50;99.90
12604;DHT22;6367;52.508;13.284;2023-09-19T03:37:25;21.50;99.90
12604;DHT22;6367;52.508;13.284;2023-09-19T03:39:51;21.60;99.90
12604;DHT22;6367;52.508;13.284;2023-09-19T03:42:17;21.60;99.90
12604;DHT22;6367;52.508;13.284;2023-09-19T03:44:43;21.60;99.90
12604;DHT22;6367;52.508;13.284;2023-09-19T03:47:08;21.60;99.90
12604;DHT22;6367;52.508;13.284;2023-09-19T03:49:34;21.60;99.90
12604;DHT22;6367;52.508;13.284;2023-09-19T03:51:59;21.60;99.90
12604;DHT22;6367;52.508;13.284;2023-09-19T03:54:25;21.60;99.90
12604;DHT22;6367;52.508;13.284;2023-09-19T03:56:51;21.60;99.90
12604;DHT22;6367;52.508;13.284;2023-09-19T03:59:16;21.60;99.90
12604;DHT22;6367;52.508;13.284;2023-09-19T04:01:43;21.70;99.90
12604;DHT22;6367;52.508;13.284;2023-09-19T04:04:09;21.70;99.90
12604;DHT22;6367;52.508;13.284;2023-09-19T04:06:35;21.60;99.90
12604;DHT22;6367;52.508;13.284;2023-09-19T04:09:03;21.60;99.90
12604;DHT22;6367;52.508;13.284;2023-09-19T04:11:29;21.60;99.90
12604;DHT22;6367;52.508;13.284;2023-09-19T04:13:57;21.60;99.90
12604;DHT22;6367;52.508;13.284;2023-09-19T04:16:22;21.60;99.90
12604;DHT22;6367;52.508;13.284;2023-09-19T04:18:48;21.60;99.90
12604;DHT22;6367;52.508;13.284;2023-09-19T04:21:14;21.60;99.90
12604;DHT22;6367;52.508;13.284;2023-09-19T04:23:39;21.50;99.90
12604;DHT22;6367;52.508;13.284;2023-09-19T04:26:05;21.50;99.90
12604;DHT22;6367;52.508;13.284;2023-09-19T04:28:32;21.50;99.90
12604;DHT22;6367;52.508;13.284;2023-09-19T04:31:00;21.40;99.90
12604;DHT22;6367;52.508;13.284;2023-09-19T04:33:26;21.40;99.90
12604;DHT22;6367;52.508;13.284;2023-09-19T04:35:54;21.40;99.90
12604;DHT22;6367;52.508;13.284;2023-09-19T04:38:20;21.40;99.90
12604;DHT22;6367;52.508;13.284;2023-09-19T04:40:47;21.30;99.90
12604;DHT22;6367;52.508;13.284;2023-09-19T04:43:13;21.40;99.90
12604;DHT22;6367;52.508;13.284;2023-09-19T04:45:39;21.40;99.90
12604;DHT22;6367;52.508;13.284;2023-09-19T04:48:08;21.40;99.90
12604;DHT22;6367;52.508;13.284;2023-09-19T04:50:36;21.30;99.90
12604;DHT22;6367;52.508;13.284;2023-09-19T04:53:02;21.30;99.90
12604;DHT22;6367;52.508;13.284;2023-09-19T04:55:28;21.30;99.90
12604;DHT22;6367;52.508;13.284;2023-09-19T04:57:56;21.30;99.90
12604;DHT22;6367;52.508;13.284;2023-09-19T05:00:22;21.30;99.90
12604;DHT22;6367;52.508;13.284;2023-09-19T05:02:55;21.30;99.90
12604;DHT22;6367;52.508;13.284;2023-09-19T05:05:24;21.20;99.90
12604;DHT22;6367;52.508;13.284;2023-09-19T05:07:51;21.20;99.90
12604;DHT22;6367;52.508;13.284;2023-09-19T05:10:19;21.20;99.90
12604;DHT22;6367;52.508;13.284;2023-09-19T05:12:45;21.10;99.90
12604;DHT22;6367;52.508;13.284;2023-09-19T05:15:14;21.20;99.90
12604;DHT22;6367;52.508;13.284;2023-09-19T05:17:40;21.20;99.90
12604;DHT22;6367;52.508;13.284;2023-09-19T05:20:06;21.20;99.90
12604;DHT22;6367;52.508;13.284;2023-09-19T05:23:11;21.20;99.90
12604;DHT22;6367;52.508;13.284;2023-09-19T05:25:39;21.20;99.90
12604;DHT22;6367;52.508;13.284;2023-09-19T05:28:06;21.20;99.90
12604;DHT22;6367;52.508;13.284;2023-09-19T05:30:33;21.20;99.90
12604;DHT22;6367;52.508;13.284;2023-09-19T05:33:04;21.20;99.90
12604;DHT22;6367;52.508;13.284;2023-09-19T05:35:31;21.20;99.90
12604;DHT22;6367;52.508;13.284;2023-09-19T05:37:57;21.20;99.90
12604;DHT22;6367;52.508;13.284;2023-09-19T05:40:24;21.20;99.90
12604;DHT22;6367;52.508;13.284;2023-09-19T05:42:50;21.20;99.90
12604;DHT22;6367;52.508;13.284;2023-09-19T05:45:16;21.20;99.90
12604;DHT22;6367;52.508;13.284;2023-09-19T05:47:48;21.10;99.90
12604;DHT22;6367;52.508;13.284;2023-09-19T05:50:15;21.20;99.90
12604;DHT22;6367;52.508;13.284;2023-09-19T05:52:41;21.60;99.90
12604;DHT22;6367;52.508;13.284;2023-09-19T05:55:08;21.10;99.90
12604;DHT22;6367;52.508;13.284;2023-09-19T05:57:37;21.10;99.90
12604;DHT22;6367;52.508;13.284;2023-09-19T06:00:08;21.10;99.90
12604;DHT22;6367;52.508;13.284;2023-09-19T06:02:36;21.10;99.90
12604;DHT22;6367;52.508;13.284;2023-09-19T06:05:06;21.10;99.90
12604;DHT22;6367;52.508;13.284;2023-09-19T06:07:36;21.10;99.90
12604;DHT22;6367;52.508;13.284;2023-09-19T06:10:06;21.10;99.90
12604;DHT22;6367;52.508;13.284;2023-09-19T06:12:39;21.00;99.90
12604;DHT22;6367;52.508;13.284;2023-09-19T06:15:05;21.00;99.90
12604;DHT22;6367;52.508;13.284;2023-09-19T06:17:34;20.90;99.90
12604;DHT22;6367;52.508;13.284;2023-09-19T06:20:06;21.10;99.90
12604;DHT22;6367;52.508;13.284;2023-09-19T06:22:38;21.00;99.90
12604;DHT22;6367;52.508;13.284;2023-09-19T06:25:04;21.10;99.90
12604;DHT22;6367;52.508;13.284;2023-09-19T06:27:29;21.10;99.90
12604;DHT22;6367;52.508;13.284;2023-09-19T06:29:55;21.20;99.90
12604;DHT22;6367;52.508;13.284;2023-09-19T06:32:27;21.20;99.90
12604;DHT22;6367;52.508;13.284;2023-09-19T06:34:53;21.20;99.90
12604;DHT22;6367;52.508;13.284;2023-09-19T06:37:23;21.30;99.90
12604;DHT22;6367;52.508;13.284;2023-09-19T06:39:49;21.30;99.90
12604;DHT22;6367;52.508;13.284;2023-09-19T06:42:15;21.40;99.90
12604;DHT22;6367;52.508;13.284;2023-09-19T06:44:43;21.50;99.90
12604;DHT22;6367;52.508;13.284;2023-09-19T06:47:08;21.60;99.90
12604;DHT22;6367;52.508;13.284;2023-09-19T06:49:36;21.70;99.90
12604;DHT22;6367;52.508;13.284;2023-09-19T06:52:02;21.80;99.90
12604;DHT22;6367;52.508;13.284;2023-09-19T06:54:28;22.00;99.90
12604;DHT22;6367;52.508;13.284;2023-09-19T06:56:59;22.20;99.90
12604;DHT22;6367;52.508;13.284;2023-09-19T06:59:25;22.30;99.90
12604;DHT22;6367;52.508;13.284;2023-09-19T07:01:50;22.50;99.90
12604;DHT22;6367;52.508;13.284;2023-09-19T07:04:16;22.50;99.90
12604;DHT22;6367;52.508;13.284;2023-09-19T07:06:48;22.50;99.90
12604;DHT22;6367;52.508;13.284;2023-09-19T07:09:15;22.50;99.90
12604;DHT22;6367;52.508;13.284;2023-09-19T07:11:41;22.50;99.90
12604;DHT22;6367;52.508;13.284;2023-09-19T07:14:07;22.50;99.90
12604;DHT22;6367;52.508;13.284;2023-09-19T07:16:33;22.50;99.90
12604;DHT22;6367;52.508;13.284;2023-09-19T07:18:59;22.50;99.90
12604;DHT22;6367;52.508;13.284;2023-09-19T07:21:24;22.60;99.90
12604;DHT22;6367;52.508;13.284;2023-09-19T07:23:50;22.60;99.90
12604;DHT22;6367;52.508;13.284;2023-09-19T07:26:16;22.60;99.90
12604;DHT22;6367;52.508;13.284;2023-09-19T07:28:42;22.60;99.90
12604;DHT22;6367;52.508;13.284;2023-09-19T07:31:08;22.50;99.90
12604;DHT22;6367;52.508;13.284;2023-09-19T07:33:36;22.60;99.90
12604;DHT22;6367;52.508;13.284;2023-09-19T07:36:02;22.50;99.90
12604;DHT22;6367;52.508;13.284;2023-09-19T07:38:27;22.50;99.90
12604;DHT22;6367;52.508;13.284;2023-09-19T07:40:59;22.50;99.90
12604;DHT22;6367;52.508;13.284;2023-09-19T07:43:25;22.40;99.90
12604;DHT22;6367;52.508;13.284;2023-09-19T07:45:50;22.40;99.90
12604;DHT22;6367;52.508;13.284;2023-09-19T07:48:16;22.40;99.90
12604;DHT22;6367;52.508;13.284;2023-09-19T07:50:42;22.30;99.90
12604;DHT22;6367;52.508;13.284;2023-09-19T07:53:08;22.30;99.90
12604;DHT22;6367;52.508;13.284;2023-09-19T07:55:34;22.30;99.90
12604;DHT22;6367;52.508;13.284;2023-09-19T07:58:00;22.20;99.90
12604;DHT22;6367;52.508;13.284;2023-09-19T08:00:26;22.30;99.90
12604;DHT22;6367;52.508;13.284;2023-09-19T08:02:51;22.40;99.90
12604;DHT22;6367;52.508;13.284;2023-09-19T08:05:18;22.40;99.90
12604;DHT22;6367;52.508;13.284;2023-09-19T08:07:45;22.40;99.90
12604;DHT22;6367;52.508;13.284;2023-09-19T08:10:14;22.50;99.90
12604;DHT22;6367;52.508;13.284;2023-09-19T08:12:42;22.40;99.50
12604;DHT22;6367;52.508;13.284;2023-09-19T08:15:20;22.40;99.60
12604;DHT22;6367;52.508;13.284;2023-09-19T08:17:46;22.30;99.60
12604;DHT22;6367;52.508;13.284;2023-09-19T08:20:13;22.40;99.30
12604;DHT22;6367;52.508;13.284;2023-09-19T08:22:49;22.40;99.20
12604;DHT22;6367;52.508;13.284;2023-09-19T08:25:18;22.30;99.10
12604;DHT22;6367;52.508;13.284;2023-09-19T08:27:47;22.30;99.00
12604;DHT22;6367;52.508;13.284;2023-09-19T08:30:18;22.30;99.10
12604;DHT22;6367;52.508;13.284;2023-09-19T08:32:45;22.30;99.20
12604;DHT22;6367;52.508;13.284;2023-09-19T08:35:14;22.20;99.00
12604;DHT22;6367;52.508;13.284;2023-09-19T08:37:39;22.30;98.90
12604;DHT22;6367;52.508;13.284;2023-09-19T08:40:05;22.30;98.70
12604;DHT22;6367;52.508;13.284;2023-09-19T08:42:48;22.40;98.70
12604;DHT22;6367;52.508;13.284;2023-09-19T08:45:15;22.40;98.70
12604;DHT22;6367;52.508;13.284;2023-09-19T08:47:46;22.40;98.40
12604;DHT22;6367;52.508;13.284;2023-09-19T08:50:23;22.40;98.20
12604;DHT22;6367;52.508;13.284;2023-09-19T08:52:51;22.40;97.60
12604;DHT22;6367;52.508;13.284;2023-09-19T08:55:28;22.40;97.60
12604;DHT22;6367;52.508;13.284;2023-09-19T08:58:00;22.50;98.00
12604;DHT22;6367;52.508;13.284;2023-09-19T09:00:28;22.60;97.70
12604;DHT22;6367;52.508;13.284;2023-09-19T09:02:55;22.60;97.40
12604;DHT22;6367;52.508;13.284;2023-09-19T09:05:22;22.70;97.20
12604;DHT22;6367;52.508;13.284;2023-09-19T09:07:52;22.70;97.20
12604;DHT22;6367;52.508;13.284;2023-09-19T09:10:22;22.60;97.20
12604;DHT22;6367;52.508;13.284;2023-09-19T09:12:51;22.60;97.20
12604;DHT22;6367;52.508;13.284;2023-09-19T09:15:19;22.70;97.10
12604;DHT22;6367;52.508;13.284;2023-09-19T09:17:47;22.80;96.70
12604;DHT22;6367;52.508;13.284;2023-09-19T09:20:18;22.80;96.30
12604;DHT22;6367;52.508;13.284;2023-09-19T09:22:57;22.80;96.30
12604;DHT22;6367;52.508;13.284;2023-09-19T09:25:53;22.80;96.10
12604;DHT22;6367;52.508;13.284;2023-09-19T09:28:21;22.90;96.00
12604;DHT22;6367;52.508;13.284;2023-09-19T09:30:48;22.90;95.60
12604;DHT22;6367;52.508;13.284;2023-09-19T09:33:14;22.90;95.50
12604;DHT22;6367;52.508;13.284;2023-09-19T09:35:58;22.90;95.80
12604;DHT22;6367;52.508;13.284;2023-09-19T09:38:27;22.90;95.40
12604;DHT22;6367;52.508;13.284;2023-09-19T09:40:58;23.00;95.20
12604;DHT22;6367;52.508;13.284;2023-09-19T09:43:36;22.90;95.00
12604;DHT22;6367;52.508;13.284;2023-09-19T09:46:19;22.90;95.00
12604;DHT22;6367;52.508;13.284;2023-09-19T09:51:33;22.90;94.10
12604;DHT22;6367;52.508;13.284;2023-09-19T09:54:13;23.00;93.90
12604;DHT22;6367;52.508;13.284;2023-09-19T09:56:56;23.10;94.30
12604;DHT22;6367;52.508;13.284;2023-09-19T10:02:12;23.20;93.10
12604;DHT22;6367;52.508;13.284;2023-09-19T10:04:39;23.30;92.90
12604;DHT22;6367;52.508;13.284;2023-09-19T10:07:30;23.20;92.60
12604;DHT22;6367;52.508;13.284;2023-09-19T10:10:33;23.30;92.60
12604;DHT22;6367;52.508;13.284;2023-09-19T10:13:12;23.30;92.40
12604;DHT22;6367;52.508;13.284;2023-09-19T10:15:42;23.30;91.90
12604;DHT22;6367;52.508;13.284;2023-09-19T10:18:14;23.30;91.90
12604;DHT22;6367;52.508;13.284;2023-09-19T10:20:45;23.30;91.90
12604;DHT22;6367;52.508;13.284;2023-09-19T10:23:12;23.30;92.00
12604;DHT22;6367;52.508;13.284;2023-09-19T10:25:42;23.30;92.00
12604;DHT22;6367;52.508;13.284;2023-09-19T10:28:13;23.20;92.20
12604;DHT22;6367;52.508;13.284;2023-09-19T10:30:44;23.20;92.10
12604;DHT22;6367;52.508;13.284;2023-09-19T10:33:11;23.20;91.70
12604;DHT22;6367;52.508;13.284;2023-09-19T10:35:39;23.20;91.80
12604;DHT22;6367;52.508;13.284;2023-09-19T10:38:10;23.20;91.80
12604;DHT22;6367;52.508;13.284;2023-09-19T10:40:37;23.30;91.20
12604;DHT22;6367;52.508;13.284;2023-09-19T10:43:20;23.40;90.50
12604;DHT22;6367;52.508;13.284;2023-09-19T10:45:48;23.50;90.40
12604;DHT22;6367;52.508;13.284;2023-09-19T10:48:15;23.60;90.20
12604;DHT22;6367;52.508;13.284;2023-09-19T10:50:56;23.70;89.40
12604;DHT22;6367;52.508;13.284;2023-09-19T10:53:25;23.70;88.60
12604;DHT22;6367;52.508;13.284;2023-09-19T10:55:59;23.80;88.00
12604;DHT22;6367;52.508;13.284;2023-09-19T10:58:30;23.90;87.50
12604;DHT22;6367;52.508;13.284;2023-09-19T11:01:00;23.90;86.80
12604;DHT22;6367;52.508;13.284;2023-09-19T11:03:37;23.70;86.40
12604;DHT22;6367;52.508;13.284;2023-09-19T11:06:18;23.70;86.40
12604;DHT22;6367;52.508;13.284;2023-09-19T11:09:16;23.60;86.80
12604;DHT22;6367;52.508;13.284;2023-09-19T11:11:49;23.60;87.20
12604;DHT22;6367;52.508;13.284;2023-09-19T11:30:52;23.50;86.80
12604;DHT22;6367;52.508;13.284;2023-09-19T11:33:32;23.70;86.30
12604;DHT22;6367;52.508;13.284;2023-09-19T11:36:12;23.70;86.50
12604;DHT22;6367;52.508;13.284;2023-09-19T11:49:18;24.00;83.70
12604;DHT22;6367;52.508;13.284;2023-09-19T11:51:50;24.00;83.50
12604;DHT22;6367;52.508;13.284;2023-09-19T11:54:20;24.10;83.90
12604;DHT22;6367;52.508;13.284;2023-09-19T11:56:54;24.20;83.30
12604;DHT22;6367;52.508;13.284;2023-09-19T11:59:26;24.10;83.10
12604;DHT22;6367;52.508;13.284;2023-09-19T12:02:04;24.00;83.40
12604;DHT22;6367;52.508;13.284;2023-09-19T12:04:41;24.10;83.40
12604;DHT22;6367;52.508;13.284;2023-09-19T12:07:16;24.10;82.60
12604;DHT22;6367;52.508;13.284;2023-09-19T12:09:43;24.10;81.80
12604;DHT22;6367;52.508;13.284;2023-09-19T12:12:22;24.10;81.60
12604;DHT22;6367;52.508;13.284;2023-09-19T12:14:51;24.10;81.60
12604;DHT22;6367;52.508;13.284;2023-09-19T12:17:17;24.10;81.10
12604;DHT22;6367;52.508;13.284;2023-09-19T12:19:53;24.10;81.30
12604;DHT22;6367;52.508;13.284;2023-09-19T12:22:19;24.10;80.10
12604;DHT22;6367;52.508;13.284;2023-09-19T12:24:48;24.10;80.40
12604;DHT22;6367;52.508;13.284;2023-09-19T12:27:16;24.10;80.40
12604;DHT22;6367;52.508;13.284;2023-09-19T12:29:46;24.10;80.00
12604;DHT22;6367;52.508;13.284;2023-09-19T12:32:14;24.20;80.00
12604;DHT22;6367;52.508;13.284;2023-09-19T12:34:42;24.20;79.70
12604;DHT22;6367;52.508;13.284;2023-09-19T12:37:15;24.20;79.30
12604;DHT22;6367;52.508;13.284;2023-09-19T12:39:46;24.20;79.20
12604;DHT22;6367;52.508;13.284;2023-09-19T12:42:19;24.30;79.00
12604;DHT22;6367;52.508;13.284;2023-09-19T12:44:46;24.30;79.30
12604;DHT22;6367;52.508;13.284;2023-09-19T12:47:15;24.30;79.70
12604;DHT22;6367;52.508;13.284;2023-09-19T12:52:37;24.20;80.10
12604;DHT22;6367;52.508;13.284;2023-09-19T12:55:04;24.20;80.20
12604;DHT22;6367;52.508;13.284;2023-09-19T12:57:35;24.20;80.90
12604;DHT22;6367;52.508;13.284;2023-09-19T13:00:03;24.30;79.90
12604;DHT22;6367;52.508;13.284;2023-09-19T13:02:31;24.20;79.50
12604;DHT22;6367;52.508;13.284;2023-09-19T13:04:58;24.20;79.50
12604;DHT22;6367;52.508;13.284;2023-09-19T13:07:44;24.10;80.20
12604;DHT22;6367;52.508;13.284;2023-09-19T13:10:14;24.10;80.10
12604;DHT22;6367;52.508;13.284;2023-09-19T13:12:42;24.00;80.60
12604;DHT22;6367;52.508;13.284;2023-09-19T13:15:14;24.00;81.10
12604;DHT22;6367;52.508;13.284;2023-09-19T13:17:48;24.10;81.60
12604;DHT22;6367;52.508;13.284;2023-09-19T13:20:27;24.10;80.90
12604;DHT22;6367;52.508;13.284;2023-09-19T13:22:54;24.10;80.60
12604;DHT22;6367;52.508;13.284;2023-09-19T13:25:25;24.10;80.30
12604;DHT22;6367;52.508;13.284;2023-09-19T13:27:57;24.10;80.40
12604;DHT22;6367;52.508;13.284;2023-09-19T13:30:25;24.10;80.30
12604;DHT22;6367;52.508;13.284;2023-09-19T13:32:51;24.10;80.40
12604;DHT22;6367;52.508;13.284;2023-09-19T13:35:18;24.10;80.50
12604;DHT22;6367;52.508;13.284;2023-09-19T13:37:44;24.10;80.20
12604;DHT22;6367;52.508;13.284;2023-09-19T13:40:17;24.10;79.80
12604;DHT22;6367;52.508;13.284;2023-09-19T13:42:42;24.20;79.40
12604;DHT22;6367;52.508;13.284;2023-09-19T13:45:08;24.00;79.40
12604;DHT22;6367;52.508;13.284;2023-09-19T13:47:40;24.00;79.30
12604;DHT22;6367;52.508;13.284;2023-09-19T13:50:06;23.90;79.70
12604;DHT22;6367;52.508;13.284;2023-09-19T13:52:33;23.90;79.70
12604;DHT22;6367;52.508;13.284;2023-09-19T13:54:59;23.90;79.40
12604;DHT22;6367;52.508;13.284;2023-09-19T13:57:25;23.90;79.40
12604;DHT22;6367;52.508;13.284;2023-09-19T13:59:52;23.80;79.70
12604;DHT22;6367;52.508;13.284;2023-09-19T14:02:19;23.70;79.70
12604;DHT22;6367;52.508;13.284;2023-09-19T14:04:45;23.70;80.10
12604;DHT22;6367;52.508;13.284;2023-09-19T14:07:10;23.20;80.00
12604;DHT22;6367;52.508;13.284;2023-09-19T14:09:41;23.90;80.60
12604;DHT22;6367;52.508;13.284;2023-09-19T14:12:07;23.90;80.60
12604;DHT22;6367;52.508;13.284;2023-09-19T14:14:32;23.90;80.60
12604;DHT22;6367;52.508;13.284;2023-09-19T14:16:58;23.90;80.40
12604;DHT22;6367;52.508;13.284;2023-09-19T14:19:27;24.00;80.60
12604;DHT22;6367;52.508;13.284;2023-09-19T14:21:53;24.00;80.30
12604;DHT22;6367;52.508;13.284;2023-09-19T14:24:21;24.00;80.30
12604;DHT22;6367;52.508;13.284;2023-09-19T14:26:46;23.90;81.20
12604;DHT22;6367;52.508;13.284;2023-09-19T14:29:13;24.00;80.70
12604;DHT22;6367;52.508;13.284;2023-09-19T14:31:40;24.00;80.60
12604;DHT22;6367;52.508;13.284;2023-09-19T14:34:06;24.00;80.60
12604;DHT22;6367;52.508;13.284;2023-09-19T14:36:32;24.10;80.30
12604;DHT22;6367;52.508;13.284;2023-09-19T14:39:01;23.90;80.40
12604;DHT22;6367;52.508;13.284;2023-09-19T14:41:27;23.90;80.90
12604;DHT22;6367;52.508;13.284;2023-09-19T14:43:53;23.90;80.80
12604;DHT22;6367;52.508;13.284;2023-09-19T14:46:21;23.90;80.80
12604;DHT22;6367;52.508;13.284;2023-09-19T14:48:46;23.90;80.80
12604;DHT22;6367;52.508;13.284;2023-09-19T14:51:13;23.80;81.00
12604;DHT22;6367;52.508;13.284;2023-09-19T14:53:40;23.90;81.30
12604;DHT22;6367;52.508;13.284;2023-09-19T14:56:08;23.80;81.30
12604;DHT22;6367;52.508;13.284;2023-09-19T14:58:34;23.80;81.30
12604;DHT22;6367;52.508;13.284;2023-09-19T15:01:08;23.80;81.00
12604;DHT22;6367;52.508;13.284;2023-09-19T15:03:36;23.80;80.70
12604;DHT22;6367;52.508;13.284;2023-09-19T15:06:03;23.70;81.00
12604;DHT22;6367;52.508;13.284;2023-09-19T15:08:36;23.70;81.10
12604;DHT22;6367;52.508;13.284;2023-09-19T15:11:09;23.70;81.00
12604;DHT22;6367;52.508;13.284;2023-09-19T15:13:36;23.70;81.00
12604;DHT22;6367;52.508;13.284;2023-09-19T15:16:06;23.70;81.20
12604;DHT22;6367;52.508;13.284;2023-09-19T15:18:35;23.80;80.90
12604;DHT22;6367;52.508;13.284;2023-09-19T15:21:06;23.80;80.50
12604;DHT22;6367;52.508;13.284;2023-09-19T15:23:33;23.70;80.40
12604;DHT22;6367;52.508;13.284;2023-09-19T15:26:06;23.80;80.70
12604;DHT22;6367;52.508;13.284;2023-09-19T15:28:32;23.70;80.80
12604;DHT22;6367;52.508;13.284;2023-09-19T15:33:32;23.60;81.10
12604;DHT22;6367;52.508;13.284;2023-09-19T15:36:14;23.60;81.10
12604;DHT22;6367;52.508;13.284;2023-09-19T15:41:35;23.60;81.20
12604;DHT22;6367;52.508;13.284;2023-09-19T15:44:03;23.60;81.40
12604;DHT22;6367;52.508;13.284;2023-09-19T15:46:33;23.60;81.60
12604;DHT22;6367;52.508;13.284;2023-09-19T15:49:00;23.60;81.20
12604;DHT22;6367;52.508;13.284;2023-09-19T15:51:27;23.60;81.30
12604;DHT22;6367;52.508;13.284;2023-09-19T15:53:53;23.60;81.30
12604;DHT22;6367;52.508;13.284;2023-09-19T15:56:21;23.50;81.00
12604;DHT22;6367;52.508;13.284;2023-09-19T15:58:49;23.60;80.90
12604;DHT22;6367;52.508;13.284;2023-09-19T16:01:15;23.50;80.90
12604;DHT22;6367;52.508;13.284;2023-09-19T16:03:47;23.50;80.60
12604;DHT22;6367;52.508;13.284;2023-09-19T16:06:20;23.50;80.30
12604;DHT22;6367;52.508;13.284;2023-09-19T16:08:49;23.50;80.20
12604;DHT22;6367;52.508;13.284;2023-09-19T16:11:16;23.40;80.20
12604;DHT22;6367;52.508;13.284;2023-09-19T16:13:42;23.40;80.40
12604;DHT22;6367;52.508;13.284;2023-09-19T16:16:09;23.40;80.50
12604;DHT22;6367;52.508;13.284;2023-09-19T16:18:44;23.40;80.60
12604;DHT22;6367;52.508;13.284;2023-09-19T16:21:10;23.40;80.80
12604;DHT22;6367;52.508;13.284;2023-09-19T16:23:39;23.30;81.00
12604;DHT22;6367;52.508;13.284;2023-09-19T16:26:08;23.30;81.20
12604;DHT22;6367;52.508;13.284;2023-09-19T16:28:37;23.30;81.40
12604;DHT22;6367;52.508;13.284;2023-09-19T16:31:04;23.30;81.50
12604;DHT22;6367;52.508;13.284;2023-09-19T16:33:32;23.30;81.40